sensor_id;sensor_type;location;lat;lon;timestamp;P1;durP1;ratioP1;P2;durP2;ratioP2
19946;SDS011;10135;50.702;7.276;2023-11-21T06:01:59;16.47;;;10.03;;
19946;SDS011;10135;50.702;7.276;2023-11-21T06:04:00;21.13;;;10.53;;
19946;SDS011;10135;50.702;7.276;2023-11-21T06:06:01;18.10;;;10.20;;
19946;SDS011;10135;50.702;7.276;2023-11-21T06:08:01;20.57;;;10.47;;
19946;SDS011;10135;50.702;7.276;2023-11-21T06:10:03;17.53;;;10.47;;
19946;SDS011;10135;50.702;7.276;2023-11-21T06:12:14;23.63;;;10.97;;
19946;SDS011;10135;50.702;7.276;2023-11-21T06:14:16;15.23;;;9.23;;
19946;SDS011;10135;50.702;7.276;2023-11-21T06:16:17;17.33;;;9.93;;
19946;SDS011;10135;50.702;7.276;2023-11-21T06:18:19;18.33;;;10.20;;
19946;SDS011;10135;50.702;7.276;2023-11-21T06:20:20;18.33;;;10.23;;
19946;SDS011;10135;50.702;7.276;2023-11-21T06:22:22;20.43;;;10.23;;
19946;SDS011;10135;50.702;7.276;2023-11-21T06:24:23;19.63;;;11.03;;
19946;SDS011;10135;50.702;7.276;2023-11-21T06:26:23;22.03;;;10.60;;
19946;SDS011;10135;50.702;7.276;2023-11-21T06:28:25;23.20;;;10.43;;
19946;SDS011;10135;50.702;7.276;2023-11-21T06:30:26;22.10;;;11.27;;
19946;SDS011;10135;50.702;7.276;2023-11-21T06:32:27;21.57;;;10.83;;
19946;SDS011;10135;50.702;7.276;2023-11-21T06:34:29;17.93;;;10.50;;
19946;SDS011;10135;50.702;7.276;2023-11-21T06:36:30;22.47;;;11.20;;
19946;SDS011;10135;50.702;7.276;2023-11-21T06:38:30;21.00;;;10.90;;
19946;SDS011;10135;50.702;7.276;2023-11-21T06:40:32;22.03;;;10.23;;
19946;SDS011;10135;50.702;7.276;2023-11-21T06:42:33;22.80;;;10.70;;
19946;SDS011;10135;50.702;7.276;2023-11-21T06:44:34;20.10;;;10.83;;
19946;SDS011;10135;50.702;7.276;2023-11-21T06:46:36;20.93;;;11.37;;
19946;SDS011;10135;50.702;7.276;2023-11-21T06:48:38;18.80;;;10.53;;
19946;SDS011;10135;50.702;7.276;2023-11-21T06:50:38;21.30;;;10.97;;
19946;SDS011;10135;50.702;7.276;2023-11-21T06:52:39;19.67;;;10.70;;
19946;SDS011;10135;50.702;7.276;2023-11-21T06:54:40;17.60;;;10.40;;
19946;SDS011;10135;50.702;7.276;2023-11-21T06:56:41;20.50;;;10.57;;
19946;SDS011;10135;50.702;7.276;2023-11-21T06:58:41;20.30;;;10.47;;
19946;SDS011;10135;50.702;7.276;2023-11-21T07:00:42;19.50;;;10.47;;
19946;SDS011;10135;50.702;7.276;2023-11-21T07:02:46;22.23;;;10.93;;
19946;SDS011;10135;50.702;7.276;2023-11-21T07:04:47;20.90;;;10.37;;
19946;SDS011;10135;50.702;7.276;2023-11-21T07:06:48;22.27;;;11.63;;
19946;SDS011;10135;50.702;7.276;2023-11-21T07:08:48;21.47;;;11.27;;
19946;SDS011;10135;50.702;7.276;2023-11-21T07:10:49;21.10;;;11.30;;
19946;SDS011;10135;50.702;7.276;2023-11-21T07:12:49;20.90;;;11.50;;
19946;SDS011;10135;50.702;7.276;2023-11-21T07:14:51;22.20;;;11.53;;
19946;SDS011;10135;50.702;7.276;2023-11-21T07:16:51;19.80;;;10.97;;
19946;SDS011;10135;50.702;7.276;2023-11-21T07:18:52;20.77;;;11.17;;
19946;SDS011;10135;50.702;7.276;2023-11-21T07:20:54;19.53;;;11.23;;
19946;SDS011;10135;50.702;7.276;2023-11-21T07:22:55;21.93;;;11.93;;
19946;SDS011;10135;50.702;7.276;2023-11-21T07:24:57;23.23;;;11.80;;
19946;SDS011;10135;50.702;7.276;2023-11-21T07:26:58;18.10;;;10.63;;
19946;SDS011;10135;50.702;7.276;2023-11-21T07:28:59;19.03;;;10.87;;
19946;SDS011;10135;50.702;7.276;2023-11-21T07:31:02;23.53;;;11.13;;
19946;SDS011;10135;50.702;7.276;2023-11-21T07:33:03;17.97;;;10.30;;
19946;SDS011;10135;50.702;7.276;2023-11-21T07:35:04;17.20;;;10.97;;
19946;SDS011;10135;50.702;7.276;2023-11-21T07:37:04;18.00;;;11.03;;
19946;SDS011;10135;50.702;7.276;2023-11-21T07:39:05;22.07;;;10.87;;
19946;SDS011;10135;50.702;7.276;2023-11-21T07:41:06;18.73;;;11.17;;
19946;SDS011;10135;50.702;7.276;2023-11-21T07:43:10;21.10;;;10.80;;
19946;SDS011;10135;50.702;7.276;2023-11-21T07:45:11;20.13;;;10.97;;
19946;SDS011;10135;50.702;7.276;2023-11-21T07:47:11;21.90;;;11.70;;
19946;SDS011;10135;50.702;7.276;2023-11-21T07:49:12;18.40;;;10.80;;
19946;SDS011;10135;50.702;7.276;2023-11-21T07:51:21;17.37;;;10.13;;
19946;SDS011;10135;50.702;7.276;2023-11-21T07:53:22;22.07;;;11.27;;
19946;SDS011;10135;50.702;7.276;2023-11-21T07:55:22;19.03;;;11.03;;
19946;SDS011;10135;50.702;7.276;2023-11-21T07:57:24;23.53;;;11.17;;
19946;SDS011;10135;50.702;7.276;2023-11-21T07:59:26;20.57;;;11.93;;
19946;SDS011;10135;50.702;7.276;2023-11-21T08:01:26;23.47;;;11.30;;
19946;SDS011;10135;50.702;7.276;2023-11-21T08:03:28;25.40;;;11.87;;
19946;SDS011;10135;50.702;7.276;2023-11-21T08:05:32;23.13;;;12.63;;
19946;SDS011;10135;50.702;7.276;2023-11-21T08:07:33;19.67;;;11.90;;
19946;SDS011;10135;50.702;7.276;2023-11-21T08:09:34;22.60;;;11.60;;
19946;SDS011;10135;50.702;7.276;2023-11-21T08:11:34;25.60;;;12.53;;
19946;SDS011;10135;50.702;7.276;2023-11-21T08:13:35;23.13;;;12.10;;
19946;SDS011;10135;50.702;7.276;2023-11-21T08:15:36;23.60;;;12.50;;
19946;SDS011;10135;50.702;7.276;2023-11-21T08:17:37;26.43;;;12.80;;
19946;SDS011;10135;50.702;7.276;2023-11-21T08:19:38;20.93;;;11.67;;
19946;SDS011;10135;50.702;7.276;2023-11-21T08:21:39;20.00;;;11.60;;
19946;SDS011;10135;50.702;7.276;2023-11-21T08:23:40;22.27;;;11.93;;
19946;SDS011;10135;50.702;7.276;2023-11-21T08:25:41;23.07;;;12.07;;
19946;SDS011;10135;50.702;7.276;2023-11-21T08:27:45;21.57;;;12.37;;
19946;SDS011;10135;50.702;7.276;2023-11-21T08:29:46;19.60;;;11.70;;
19946;SDS011;10135;50.702;7.276;2023-11-21T08:31:47;21.63;;;11.80;;
19946;SDS011;10135;50.702;7.276;2023-11-21T08:33:47;20.60;;;12.33;;
19946;SDS011;10135;50.702;7.276;2023-11-21T08:35:48;23.67;;;11.73;;
19946;SDS011;10135;50.702;7.276;2023-11-21T08:37:51;24.30;;;12.30;;
19946;SDS011;10135;50.702;7.276;2023-11-21T08:39:55;19.57;;;11.63;;
19946;SDS011;10135;50.702;7.276;2023-11-21T08:41:59;20.70;;;12.60;;
19946;SDS011;10135;50.702;7.276;2023-11-21T08:44:00;22.87;;;11.63;;
19946;SDS011;10135;50.702;7.276;2023-11-21T08:46:01;20.37;;;11.70;;
19946;SDS011;10135;50.702;7.276;2023-11-21T08:48:01;21.63;;;12.30;;
19946;SDS011;10135;50.702;7.276;2023-11-21T08:50:02;23.73;;;12.27;;
19946;SDS011;10135;50.702;7.276;2023-11-21T08:52:03;24.30;;;13.13;;
19946;SDS011;10135;50.702;7.276;2023-11-21T08:54:05;27.57;;;13.77;;
19946;SDS011;10135;50.702;7.276;2023-11-21T08:56:08;23.00;;;12.53;;
19946;SDS011;10135;50.702;7.276;2023-11-21T08:58:14;23.10;;;13.23;;
19946;SDS011;10135;50.702;7.276;2023-11-21T09:00:15;22.60;;;12.93;;
19946;SDS011;10135;50.702;7.276;2023-11-21T09:02:17;24.40;;;13.83;;
19946;SDS011;10135;50.702;7.276;2023-11-21T09:04:17;23.33;;;13.03;;
19946;SDS011;10135;50.702;7.276;2023-11-21T09:06:18;25.20;;;13.70;;
19946;SDS011;10135;50.702;7.276;2023-11-21T09:08:19;23.23;;;12.70;;
19946;SDS011;10135;50.702;7.276;2023-11-21T09:10:19;25.03;;;13.53;;
19946;SDS011;10135;50.702;7.276;2023-11-21T09:12:20;22.57;;;11.83;;
19946;SDS011;10135;50.702;7.276;2023-11-21T09:14:21;25.70;;;13.63;;
19946;SDS011;10135;50.702;7.276;2023-11-21T09:16:22;23.97;;;12.87;;
19946;SDS011;10135;50.702;7.276;2023-11-21T09:18:22;23.40;;;13.23;;
19946;SDS011;10135;50.702;7.276;2023-11-21T09:20:23;23.93;;;13.20;;
19946;SDS011;10135;50.702;7.276;2023-11-21T09:22:24;23.17;;;12.67;;
19946;SDS011;10135;50.702;7.276;2023-11-21T09:24:29;21.63;;;11.97;;
19946;SDS011;10135;50.702;7.276;2023-11-21T09:26:31;27.67;;;13.33;;
19946;SDS011;10135;50.702;7.276;2023-11-21T09:28:32;24.03;;;12.70;;
19946;SDS011;10135;50.702;7.276;2023-11-21T09:30:32;24.33;;;12.73;;
19946;SDS011;10135;50.702;7.276;2023-11-21T09:32:37;28.60;;;13.70;;
19946;SDS011;10135;50.702;7.276;2023-11-21T09:34:38;23.23;;;11.43;;
19946;SDS011;10135;50.702;7.276;2023-11-21T09:36:39;22.53;;;11.60;;
19946;SDS011;10135;50.702;7.276;2023-11-21T09:38:39;21.37;;;11.93;;
19946;SDS011;10135;50.702;7.276;2023-11-21T09:40:42;22.43;;;12.13;;
19946;SDS011;10135;50.702;7.276;2023-11-21T09:42:54;22.77;;;11.80;;
19946;SDS011;10135;50.702;7.276;2023-11-21T09:45:06;23.37;;;11.73;;
19946;SDS011;10135;50.702;7.276;2023-11-21T09:47:23;24.33;;;12.97;;
19946;SDS011;10135;50.702;7.276;2023-11-21T09:49:24;24.57;;;12.57;;
19946;SDS011;10135;50.702;7.276;2023-11-21T09:51:29;24.27;;;13.23;;
19946;SDS011;10135;50.702;7.276;2023-11-21T09:53:33;22.07;;;12.43;;
19946;SDS011;10135;50.702;7.276;2023-11-21T09:55:35;22.27;;;12.40;;
19946;SDS011;10135;50.702;7.276;2023-11-21T09:57:38;24.57;;;11.90;;
19946;SDS011;10135;50.702;7.276;2023-11-21T09:59:40;26.00;;;13.07;;
19946;SDS011;10135;50.702;7.276;2023-11-21T10:01:41;20.97;;;11.60;;
19946;SDS011;10135;50.702;7.276;2023-11-21T10:03:42;21.70;;;12.43;;
19946;SDS011;10135;50.702;7.276;2023-11-21T10:05:43;24.57;;;13.00;;
19946;SDS011;10135;50.702;7.276;2023-11-21T10:07:50;28.80;;;14.23;;
19946;SDS011;10135;50.702;7.276;2023-11-21T10:09:52;24.17;;;13.13;;
19946;SDS011;10135;50.702;7.276;2023-11-21T10:11:54;23.67;;;13.13;;
19946;SDS011;10135;50.702;7.276;2023-11-21T10:13:57;23.63;;;13.37;;
19946;SDS011;10135;50.702;7.276;2023-11-21T10:16:02;26.90;;;13.33;;
19946;SDS011;10135;50.702;7.276;2023-11-21T10:18:06;26.27;;;13.30;;
19946;SDS011;10135;50.702;7.276;2023-11-21T10:20:10;20.70;;;12.47;;
19946;SDS011;10135;50.702;7.276;2023-11-21T10:22:16;25.60;;;12.73;;
19946;SDS011;10135;50.702;7.276;2023-11-21T10:24:17;24.13;;;13.53;;
19946;SDS011;10135;50.702;7.276;2023-11-21T10:26:18;19.77;;;12.20;;
19946;SDS011;10135;50.702;7.276;2023-11-21T10:28:20;19.80;;;11.53;;
19946;SDS011;10135;50.702;7.276;2023-11-21T10:30:21;20.60;;;12.20;;
19946;SDS011;10135;50.702;7.276;2023-11-21T10:32:22;25.27;;;12.53;;
19946;SDS011;10135;50.702;7.276;2023-11-21T10:34:30;23.73;;;12.17;;
19946;SDS011;10135;50.702;7.276;2023-11-21T10:36:32;25.37;;;12.60;;
19946;SDS011;10135;50.702;7.276;2023-11-21T10:38:35;20.90;;;11.40;;
19946;SDS011;10135;50.702;7.276;2023-11-21T10:40:42;20.83;;;11.83;;
19946;SDS011;10135;50.702;7.276;2023-11-21T10:42:44;24.53;;;12.40;;
19946;SDS011;10135;50.702;7.276;2023-11-21T10:44:45;20.90;;;11.83;;
19946;SDS011;10135;50.702;7.276;2023-11-21T10:46:52;22.27;;;12.43;;
19946;SDS011;10135;50.702;7.276;2023-11-21T10:48:57;20.00;;;11.47;;
19946;SDS011;10135;50.702;7.276;2023-11-21T10:50:58;22.00;;;12.60;;
19946;SDS011;10135;50.702;7.276;2023-11-21T10:52:58;20.03;;;11.20;;
19946;SDS011;10135;50.702;7.276;2023-11-21T10:55:19;25.37;;;12.33;;
19946;SDS011;10135;50.702;7.276;2023-11-21T10:57:24;22.50;;;12.03;;
19946;SDS011;10135;50.702;7.276;2023-11-21T10:59:29;23.47;;;12.27;;
19946;SDS011;10135;50.702;7.276;2023-11-21T11:01:31;23.00;;;12.90;;
19946;SDS011;10135;50.702;7.276;2023-11-21T11:03:32;27.63;;;13.23;;
19946;SDS011;10135;50.702;7.276;2023-11-21T11:05:36;23.17;;;11.97;;
19946;SDS011;10135;50.702;7.276;2023-11-21T11:07:39;25.27;;;12.70;;
19946;SDS011;10135;50.702;7.276;2023-11-21T11:10:28;24.57;;;11.80;;
19946;SDS011;10135;50.702;7.276;2023-11-21T11:12:49;20.23;;;11.57;;
19946;SDS011;10135;50.702;7.276;2023-11-21T11:15:27;21.87;;;11.17;;
19946;SDS011;10135;50.702;7.276;2023-11-21T11:18:18;17.43;;;11.03;;
19946;SDS011;10135;50.702;7.276;2023-11-21T11:20:51;19.13;;;11.10;;
19946;SDS011;10135;50.702;7.276;2023-11-21T11:42:29;18.40;;;10.60;;
19946;SDS011;10135;50.702;7.276;2023-11-21T11:45:44;18.03;;;10.87;;
19946;SDS011;10135;50.702;7.276;2023-11-21T12:09:05;34.40;;;15.97;;
19946;SDS011;10135;50.702;7.276;2023-11-21T12:11:05;27.47;;;15.40;;
19946;SDS011;10135;50.702;7.276;2023-11-21T12:13:06;26.20;;;15.67;;
19946;SDS011;10135;50.702;7.276;2023-11-21T12:15:10;27.57;;;15.13;;
19946;SDS011;10135;50.702;7.276;2023-11-21T12:17:11;35.27;;;18.67;;
19946;SDS011;10135;50.702;7.276;2023-11-21T12:19:13;31.17;;;14.60;;
19946;SDS011;10135;50.702;7.276;2023-11-21T12:21:13;28.33;;;14.17;;
19946;SDS011;10135;50.702;7.276;2023-11-21T12:23:16;28.83;;;14.50;;
19946;SDS011;10135;50.702;7.276;2023-11-21T12:25:17;23.77;;;13.60;;
19946;SDS011;10135;50.702;7.276;2023-11-21T12:27:21;25.57;;;14.73;;
19946;SDS011;10135;50.702;7.276;2023-11-21T12:29:22;25.57;;;14.47;;
19946;SDS011;10135;50.702;7.276;2023-11-21T12:31:22;26.30;;;14.83;;
19946;SDS011;10135;50.702;7.276;2023-11-21T12:33:23;27.57;;;14.50;;
19946;SDS011;10135;50.702;7.276;2023-11-21T12:35:29;29.80;;;14.97;;
19946;SDS011;10135;50.702;7.276;2023-11-21T12:37:35;27.03;;;13.93;;
19946;SDS011;10135;50.702;7.276;2023-11-21T12:39:38;27.27;;;14.93;;
19946;SDS011;10135;50.702;7.276;2023-11-21T12:41:39;24.37;;;14.00;;
19946;SDS011;10135;50.702;7.276;2023-11-21T12:43:40;26.40;;;14.43;;
19946;SDS011;10135;50.702;7.276;2023-11-21T12:45:41;26.23;;;14.30;;
19946;SDS011;10135;50.702;7.276;2023-11-21T12:47:42;25.83;;;13.33;;
19946;SDS011;10135;50.702;7.276;2023-11-21T12:49:44;24.83;;;13.83;;
19946;SDS011;10135;50.702;7.276;2023-11-21T12:51:45;27.63;;;14.03;;
19946;SDS011;10135;50.702;7.276;2023-11-21T12:53:46;26.03;;;14.27;;
19946;SDS011;10135;50.702;7.276;2023-11-21T12:55:47;26.97;;;14.00;;
19946;SDS011;10135;50.702;7.276;2023-11-21T12:57:52;30.30;;;13.67;;
19946;SDS011;10135;50.702;7.276;2023-11-21T12:59:57;26.77;;;14.20;;
19946;SDS011;10135;50.702;7.276;2023-11-21T13:01:58;23.03;;;13.27;;
19946;SDS011;10135;50.702;7.276;2023-11-21T13:04:04;24.10;;;13.33;;
19946;SDS011;10135;50.702;7.276;2023-11-21T13:06:10;30.27;;;13.90;;
19946;SDS011;10135;50.702;7.276;2023-11-21T13:08:12;27.27;;;12.73;;
19946;SDS011;10135;50.702;7.276;2023-11-21T13:10:13;25.13;;;12.17;;
19946;SDS011;10135;50.702;7.276;2023-11-21T13:12:14;22.67;;;12.37;;
19946;SDS011;10135;50.702;7.276;2023-11-21T13:14:18;20.93;;;12.63;;
19946;SDS011;10135;50.702;7.276;2023-11-21T13:16:18;27.80;;;13.10;;
19946;SDS011;10135;50.702;7.276;2023-11-21T13:18:20;22.70;;;12.33;;
19946;SDS011;10135;50.702;7.276;2023-11-21T13:20:21;25.67;;;12.30;;
19946;SDS011;10135;50.702;7.276;2023-11-21T13:22:22;22.10;;;12.00;;
19946;SDS011;10135;50.702;7.276;2023-11-21T13:24:24;23.53;;;12.60;;
19946;SDS011;10135;50.702;7.276;2023-11-21T13:26:26;24.47;;;12.93;;
19946;SDS011;10135;50.702;7.276;2023-11-21T13:28:26;21.73;;;12.20;;
19946;SDS011;10135;50.702;7.276;2023-11-21T13:30:31;24.30;;;12.27;;
19946;SDS011;10135;50.702;7.276;2023-11-21T13:32:35;25.93;;;13.00;;
19946;SDS011;10135;50.702;7.276;2023-11-21T13:34:35;28.20;;;12.43;;
19946;SDS011;10135;50.702;7.276;2023-11-21T13:36:36;32.60;;;14.10;;
19946;SDS011;10135;50.702;7.276;2023-11-21T13:38:37;24.00;;;12.87;;
19946;SDS011;10135;50.702;7.276;2023-11-21T13:40:42;34.20;;;13.03;;
19946;SDS011;10135;50.702;7.276;2023-11-21T13:42:49;24.50;;;12.90;;
19946;SDS011;10135;50.702;7.276;2023-11-21T13:44:56;25.43;;;12.87;;
19946;SDS011;10135;50.702;7.276;2023-11-21T13:46:57;27.93;;;12.37;;
19946;SDS011;10135;50.702;7.276;2023-11-21T13:48:59;24.80;;;12.50;;
19946;SDS011;10135;50.702;7.276;2023-11-21T13:51:00;25.07;;;12.33;;
19946;SDS011;10135;50.702;7.276;2023-11-21T13:53:10;22.17;;;11.90;;
19946;SDS011;10135;50.702;7.276;2023-11-21T13:55:18;29.77;;;12.13;;
19946;SDS011;10135;50.702;7.276;2023-11-21T13:57:20;23.97;;;12.47;;
19946;SDS011;10135;50.702;7.276;2023-11-21T13:59:21;21.50;;;12.20;;
19946;SDS011;10135;50.702;7.276;2023-11-21T14:01:26;28.20;;;12.20;;
19946;SDS011;10135;50.702;7.276;2023-11-21T14:03:30;22.97;;;12.53;;
19946;SDS011;10135;50.702;7.276;2023-11-21T14:05:43;29.00;;;13.10;;
19946;SDS011;10135;50.702;7.276;2023-11-21T14:07:46;25.93;;;12.87;;
19946;SDS011;10135;50.702;7.276;2023-11-21T14:09:48;26.43;;;12.47;;
19946;SDS011;10135;50.702;7.276;2023-11-21T14:11:52;30.90;;;13.00;;
19946;SDS011;10135;50.702;7.276;2023-11-21T14:13:57;24.40;;;12.77;;
19946;SDS011;10135;50.702;7.276;2023-11-21T14:15:59;31.67;;;13.90;;
19946;SDS011;10135;50.702;7.276;2023-11-21T14:18:02;29.23;;;13.90;;
19946;SDS011;10135;50.702;7.276;2023-11-21T14:20:07;26.00;;;12.80;;
19946;SDS011;10135;50.702;7.276;2023-11-21T14:22:15;24.57;;;13.43;;
19946;SDS011;10135;50.702;7.276;2023-11-21T14:24:18;26.73;;;13.70;;
19946;SDS011;10135;50.702;7.276;2023-11-21T14:26:19;26.13;;;12.73;;
19946;SDS011;10135;50.702;7.276;2023-11-21T14:28:48;29.40;;;13.13;;
19946;SDS011;10135;50.702;7.276;2023-11-21T14:31:19;28.40;;;12.17;;
19946;SDS011;10135;50.702;7.276;2023-11-21T14:34:29;21.17;;;12.10;;
19946;SDS011;10135;50.702;7.276;2023-11-21T14:39:31;24.73;;;12.00;;
19946;SDS011;10135;50.702;7.276;2023-11-21T14:44:57;22.27;;;11.50;;
19946;SDS011;10135;50.702;7.276;2023-11-21T14:50:47;22.27;;;11.37;;
19946;SDS011;10135;50.702;7.276;2023-11-21T14:53:44;25.63;;;11.40;;
19946;SDS011;10135;50.702;7.276;2023-11-21T14:56:39;22.63;;;11.47;;
19946;SDS011;10135;50.702;7.276;2023-11-21T15:00:07;20.47;;;10.67;;
19946;SDS011;10135;50.702;7.276;2023-11-21T15:03:08;21.87;;;11.23;;
19946;SDS011;10135;50.702;7.276;2023-11-21T15:05:41;25.90;;;11.50;;
19946;SDS011;10135;50.702;7.276;2023-11-21T15:07:54;25.37;;;11.47;;
19946;SDS011;10135;50.702;7.276;2023-11-21T15:09:57;21.27;;;11.00;;
19946;SDS011;10135;50.702;7.276;2023-11-21T15:11:58;20.80;;;11.23;;
19946;SDS011;10135;50.702;7.276;2023-11-21T15:14:20;25.87;;;11.63;;
19946;SDS011;10135;50.702;7.276;2023-11-21T15:16:25;25.63;;;12.47;;
19946;SDS011;10135;50.702;7.276;2023-11-21T15:18:28;25.00;;;11.77;;
19946;SDS011;10135;50.702;7.276;2023-11-21T15:20:29;24.13;;;11.67;;
19946;SDS011;10135;50.702;7.276;2023-11-21T15:22:30;22.93;;;11.77;;
19946;SDS011;10135;50.702;7.276;2023-11-21T15:24:31;22.40;;;10.93;;
19946;SDS011;10135;50.702;7.276;2023-11-21T15:26:31;23.63;;;12.37;;
19946;SDS011;10135;50.702;7.276;2023-11-21T15:28:32;20.57;;;11.23;;
19946;SDS011;10135;50.702;7.276;2023-11-21T15:30:33;25.60;;;11.73;;
19946;SDS011;10135;50.702;7.276;2023-11-21T15:32:37;23.93;;;12.07;;
19946;SDS011;10135;50.702;7.276;2023-11-21T15:37:13;22.77;;;11.30;;
19946;SDS011;10135;50.702;7.276;2023-11-21T15:39:55;25.10;;;11.93;;
19946;SDS011;10135;50.702;7.276;2023-11-21T15:42:08;23.50;;;10.50;;
19946;SDS011;10135;50.702;7.276;2023-11-21T15:44:12;21.17;;;10.30;;
19946;SDS011;10135;50.702;7.276;2023-11-21T15:46:37;24.17;;;11.60;;
19946;SDS011;10135;50.702;7.276;2023-11-21T15:48:42;22.80;;;11.53;;
19946;SDS011;10135;50.702;7.276;2023-11-21T15:50:49;24.50;;;11.87;;
19946;SDS011;10135;50.702;7.276;2023-11-21T15:52:52;30.40;;;11.77;;
19946;SDS011;10135;50.702;7.276;2023-11-21T15:54:56;24.30;;;11.47;;
19946;SDS011;10135;50.702;7.276;2023-11-21T15:57:05;24.60;;;12.33;;
19946;SDS011;10135;50.702;7.276;2023-11-21T15:59:17;24.17;;;12.13;;
19946;SDS011;10135;50.702;7.276;2023-11-21T16:01:31;24.20;;;11.97;;
19946;SDS011;10135;50.702;7.276;2023-11-21T16:03:42;24.60;;;11.23;;
19946;SDS011;10135;50.702;7.276;2023-11-21T16:05:46;24.23;;;11.97;;
19946;SDS011;10135;50.702;7.276;2023-11-21T16:07:50;25.90;;;12.00;;
19946;SDS011;10135;50.702;7.276;2023-11-21T16:10:05;25.87;;;12.97;;
19946;SDS011;10135;50.702;7.276;2023-11-21T16:12:16;25.30;;;12.23;;
19946;SDS011;10135;50.702;7.276;2023-11-21T16:14:18;27.60;;;12.87;;
19946;SDS011;10135;50.702;7.276;2023-11-21T16:16:21;27.10;;;13.20;;
19946;SDS011;10135;50.702;7.276;2023-11-21T16:18:22;28.10;;;12.90;;
19946;SDS011;10135;50.702;7.276;2023-11-21T16:20:26;27.73;;;12.77;;
19946;SDS011;10135;50.702;7.276;2023-11-21T16:22:26;29.90;;;12.57;;
19946;SDS011;10135;50.702;7.276;2023-11-21T16:24:28;27.27;;;12.80;;
19946;SDS011;10135;50.702;7.276;2023-11-21T16:26:30;30.93;;;13.73;;
19946;SDS011;10135;50.702;7.276;2023-11-21T16:28:34;28.87;;;12.90;;
19946;SDS011;10135;50.702;7.276;2023-11-21T16:30:41;26.57;;;13.07;;
19946;SDS011;10135;50.702;7.276;2023-11-21T16:32:42;29.63;;;13.27;;
19946;SDS011;10135;50.702;7.276;2023-11-21T16:46:50;32.83;;;13.97;;
19946;SDS011;10135;50.702;7.276;2023-11-21T16:48:57;65.43;;;27.23;;
19946;SDS011;10135;50.702;7.276;2023-11-21T16:50:58;72.27;;;29.03;;
19946;SDS011;10135;50.702;7.276;2023-11-21T16:52:59;48.13;;;20.20;;
19946;SDS011;10135;50.702;7.276;2023-11-21T16:55:05;51.03;;;20.90;;
19946;SDS011;10135;50.702;7.276;2023-11-21T16:57:09;62.13;;;26.07;;
19946;SDS011;10135;50.702;7.276;2023-11-21T16:59:09;47.87;;;20.23;;
19946;SDS011;10135;50.702;7.276;2023-11-21T17:01:11;42.13;;;17.87;;
19946;SDS011;10135;50.702;7.276;2023-11-21T17:03:18;75.10;;;31.77;;
19946;SDS011;10135;50.702;7.276;2023-11-21T17:05:26;61.03;;;26.30;;
19946;SDS011;10135;50.702;7.276;2023-11-21T17:07:26;54.30;;;24.83;;
19946;SDS011;10135;50.702;7.276;2023-11-21T17:09:29;60.57;;;26.33;;
19946;SDS011;10135;50.702;7.276;2023-11-21T17:11:29;54.10;;;24.07;;
19946;SDS011;10135;50.702;7.276;2023-11-21T17:13:30;45.60;;;19.70;;
19946;SDS011;10135;50.702;7.276;2023-11-21T17:15:31;62.17;;;28.07;;
19946;SDS011;10135;50.702;7.276;2023-11-21T17:17:31;62.03;;;25.43;;
19946;SDS011;10135;50.702;7.276;2023-11-21T17:19:34;58.87;;;24.30;;
19946;SDS011;10135;50.702;7.276;2023-11-21T17:21:35;61.83;;;26.17;;
19946;SDS011;10135;50.702;7.276;2023-11-21T17:23:36;50.87;;;21.77;;
19946;SDS011;10135;50.702;7.276;2023-11-21T17:25:36;42.73;;;20.13;;
19946;SDS011;10135;50.702;7.276;2023-11-21T17:27:37;41.67;;;18.33;;
19946;SDS011;10135;50.702;7.276;2023-11-21T17:29:38;58.63;;;25.80;;
19946;SDS011;10135;50.702;7.276;2023-11-21T17:31:38;51.50;;;22.07;;
19946;SDS011;10135;50.702;7.276;2023-11-21T17:33:39;42.90;;;19.63;;
19946;SDS011;10135;50.702;7.276;2023-11-21T17:35:42;37.93;;;17.03;;
19946;SDS011;10135;50.702;7.276;2023-11-21T17:37:42;66.13;;;28.70;;
19946;SDS011;10135;50.702;7.276;2023-11-21T17:39:43;45.40;;;20.30;;
19946;SDS011;10135;50.702;7.276;2023-11-21T17:41:44;47.30;;;22.07;;
19946;SDS011;10135;50.702;7.276;2023-11-21T17:43:44;37.10;;;16.50;;
19946;SDS011;10135;50.702;7.276;2023-11-21T17:45:45;33.00;;;16.57;;
19946;SDS011;10135;50.702;7.276;2023-11-21T17:47:48;38.10;;;16.80;;
19946;SDS011;10135;50.702;7.276;2023-11-21T17:49:49;42.50;;;18.27;;
19946;SDS011;10135;50.702;7.276;2023-11-21T17:51:50;29.43;;;14.33;;
19946;SDS011;10135;50.702;7.276;2023-11-21T17:53:51;41.13;;;18.50;;
19946;SDS011;10135;50.702;7.276;2023-11-21T17:55:57;29.10;;;13.73;;
19946;SDS011;10135;50.702;7.276;2023-11-21T17:57:58;24.13;;;12.67;;
19946;SDS011;10135;50.702;7.276;2023-11-21T17:59:59;20.77;;;11.23;;
19946;SDS011;10135;50.702;7.276;2023-11-21T18:02:00;29.67;;;14.13;;
19946;SDS011;10135;50.702;7.276;2023-11-21T18:04:01;24.63;;;12.03;;
19946;SDS011;10135;50.702;7.276;2023-11-21T18:06:02;17.37;;;10.13;;
19946;SDS011;10135;50.702;7.276;2023-11-21T18:08:03;18.47;;;9.53;;
19946;SDS011;10135;50.702;7.276;2023-11-21T18:10:06;12.87;;;8.13;;
19946;SDS011;10135;50.702;7.276;2023-11-21T18:12:07;13.37;;;8.73;;
19946;SDS011;10135;50.702;7.276;2023-11-21T18:14:08;14.40;;;9.00;;
19946;SDS011;10135;50.702;7.276;2023-11-21T18:16:10;10.57;;;7.50;;
19946;SDS011;10135;50.702;7.276;2023-11-21T18:18:10;13.13;;;7.47;;
19946;SDS011;10135;50.702;7.276;2023-11-21T18:20:11;17.97;;;10.37;;
19946;SDS011;10135;50.702;7.276;2023-11-21T18:22:12;12.60;;;8.07;;
19946;SDS011;10135;50.702;7.276;2023-11-21T18:24:13;15.73;;;9.13;;
19946;SDS011;10135;50.702;7.276;2023-11-21T18:26:17;13.73;;;7.90;;
19946;SDS011;10135;50.702;7.276;2023-11-21T18:28:17;11.47;;;7.30;;
19946;SDS011;10135;50.702;7.276;2023-11-21T18:30:18;9.80;;;6.40;;
19946;SDS011;10135;50.702;7.276;2023-11-21T18:32:19;17.03;;;9.67;;
19946;SDS011;10135;50.702;7.276;2023-11-21T18:34:22;9.00;;;6.40;;
19946;SDS011;10135;50.702;7.276;2023-11-21T18:36:24;9.17;;;6.20;;
19946;SDS011;10135;50.702;7.276;2023-11-21T18:38:25;12.33;;;8.13;;
19946;SDS011;10135;50.702;7.276;2023-11-21T18:40:26;10.63;;;6.60;;
19946;SDS011;10135;50.702;7.276;2023-11-21T18:42:27;8.87;;;6.10;;
19946;SDS011;10135;50.702;7.276;2023-11-21T18:44:29;7.03;;;5.63;;
19946;SDS011;10135;50.702;7.276;2023-11-21T18:46:34;6.43;;;5.23;;
19946;SDS011;10135;50.702;7.276;2023-11-21T18:48:36;7.10;;;5.47;;
19946;SDS011;10135;50.702;7.276;2023-11-21T18:50:37;7.03;;;5.23;;
19946;SDS011;10135;50.702;7.276;2023-11-21T18:52:38;5.90;;;4.93;;
19946;SDS011;10135;50.702;7.276;2023-11-21T18:54:41;7.00;;;5.20;;
19946;SDS011;10135;50.702;7.276;2023-11-21T18:56:43;5.70;;;5.03;;
19946;SDS011;10135;50.702;7.276;2023-11-21T18:58:43;5.93;;;5.27;;
19946;SDS011;10135;50.702;7.276;2023-11-21T19:00:44;6.77;;;5.13;;
19946;SDS011;10135;50.702;7.276;2023-11-21T19:02:44;5.27;;;4.70;;
19946;SDS011;10135;50.702;7.276;2023-11-21T19:04:45;5.23;;;4.57;;
19946;SDS011;10135;50.702;7.276;2023-11-21T19:06:46;5.07;;;4.67;;
19946;SDS011;10135;50.702;7.276;2023-11-21T19:08:47;5.57;;;4.40;;
19946;SDS011;10135;50.702;7.276;2023-11-21T19:10:49;5.70;;;4.40;;
19946;SDS011;10135;50.702;7.276;2023-11-21T19:12:50;5.00;;;4.30;;
19946;SDS011;10135;50.702;7.276;2023-11-21T19:14:51;6.60;;;4.33;;
19946;SDS011;10135;50.702;7.276;2023-11-21T19:16:51;10.97;;;7.43;;